Senin
| Ora | Descriere | Temp | Se simte | Precipitatii | Umiditate | Vant |
|---|---|---|---|---|---|---|
| 00:00 | Senin | 12.1° | 11° | 0% | 62% | SSE 11.5 KM/H |
| 01:00 | Senin | 11.6° | 10.5° | 0% | 65% | S 10.4 KM/H |
| 02:00 | Ceata | 7.1° | 9.9° | 0% | 100% | S 10.1 KM/H |
| 03:00 | Senin | 10.6° | 9.3° | 0% | 72% | S 10.1 KM/H |
| 04:00 | Senin | 10.1° | 8.6° | 0% | 75% | S 10.8 KM/H |
| 05:00 | Senin | 9.7° | 8.4° | 0% | 78% | S 9.7 KM/H |
| 06:00 | Senin | 9.5° | 8° | 0% | 81% | SSE 10.1 KM/H |
| 07:00 | Senin | 10.6° | 9.4° | 0% | 77% | SSE 9.7 KM/H |
| 08:00 | Senin | 13° | 11.8° | 0% | 67% | SSE 12.6 KM/H |
| 09:00 | Senin | 15.2° | 15.2° | 0% | 58% | SSE 14.4 KM/H |
| 10:00 | Senin | 17.3° | 17.3° | 0% | 49% | SSE 15.8 KM/H |
| 11:00 | Senin | 19.1° | 19.1° | 0% | 43% | SSE 16.6 KM/H |
| 12:00 | Senin | 20.7° | 20.7° | 0% | 39% | SSE 17.6 KM/H |
| 13:00 | Senin | 21.7° | 21.7° | 0% | 36% | SSE 18.4 KM/H |
| 14:00 | Senin | 22.2° | 23.8° | 0% | 36% | SSE 19.1 KM/H |
| 15:00 | Senin | 22.3° | 23.9° | 0% | 36% | SSE 19.8 KM/H |
| 16:00 | Senin | 22.4° | 24° | 0% | 37% | SSE 20.2 KM/H |
| 17:00 | Senin | 21.7° | 21.7° | 0% | 39% | SSE 20.2 KM/H |
| 18:00 | Senin | 20.8° | 20.9° | 0% | 42% | SSE 21.2 KM/H |
| 19:00 | Senin | 19° | 19° | 0% | 50% | SSE 21.6 KM/H |
| 20:00 | Senin | 16.3° | 16.3° | 0% | 59% | SSE 19.8 KM/H |
| 21:00 | Senin | 14.4° | 13.1° | 0% | 65% | SSE 17.3 KM/H |
| 22:00 | Senin | 13.2° | 11.8° | 0% | 69% | SSE 16.2 KM/H |
| 23:00 | Senin | 12.7° | 11.2° | 0% | 70% | SSE 15.5 KM/H |